sensor_id;sensor_type;location;lat;lon;timestamp;pressure;altitude;pressure_sealevel;temperature;humidity
9419;BME280;4748;50.802;7.132;2023-04-27T00:01:28;101309.41;;;9.66;88.60
9419;BME280;4748;50.802;7.132;2023-04-27T00:03:54;101308.81;;;9.65;89.36
9419;BME280;4748;50.802;7.132;2023-04-27T00:06:21;101314.31;;;9.63;88.25
9419;BME280;4748;50.802;7.132;2023-04-27T00:08:46;101312.50;;;9.64;88.85
9419;BME280;4748;50.802;7.132;2023-04-27T00:11:11;101313.31;;;9.64;88.25
9419;BME280;4748;50.802;7.132;2023-04-27T00:13:37;101323.78;;;9.65;87.93
9419;BME280;4748;50.802;7.132;2023-04-27T00:16:02;101323.78;;;9.65;89.01
9419;BME280;4748;50.802;7.132;2023-04-27T00:18:31;101322.72;;;9.60;90.94
9419;BME280;4748;50.802;7.132;2023-04-27T00:20:57;101314.31;;;9.63;90.67
9419;BME280;4748;50.802;7.132;2023-04-27T00:23:23;101320.72;;;9.62;94.97
9419;BME280;4748;50.802;7.132;2023-04-27T00:25:48;101318.22;;;9.61;96.04
9419;BME280;4748;50.802;7.132;2023-04-27T00:28:13;101322.63;;;9.41;100.00
9419;BME280;4748;50.802;7.132;2023-04-27T00:30:39;101321.91;;;9.26;100.00
9419;BME280;4748;50.802;7.132;2023-04-27T00:33:04;101325.81;;;9.23;100.00
9419;BME280;4748;50.802;7.132;2023-04-27T00:35:31;101319.22;;;9.26;100.00
9419;BME280;4748;50.802;7.132;2023-04-27T00:37:57;101320.00;;;9.20;100.00
9419;BME280;4748;50.802;7.132;2023-04-27T00:40:22;101324.97;;;9.23;100.00
9419;BME280;4748;50.802;7.132;2023-04-27T00:42:47;101335.50;;;9.31;100.00
9419;BME280;4748;50.802;7.132;2023-04-27T00:45:13;101332.44;;;9.34;100.00
9419;BME280;4748;50.802;7.132;2023-04-27T00:47:38;101330.00;;;9.39;100.00
9419;BME280;4748;50.802;7.132;2023-04-27T00:50:04;101329.91;;;9.26;100.00
9419;BME280;4748;50.802;7.132;2023-04-27T00:52:33;101327.91;;;9.34;100.00
9419;BME280;4748;50.802;7.132;2023-04-27T00:55:02;101329.38;;;9.37;100.00
9419;BME280;4748;50.802;7.132;2023-04-27T00:57:28;101332.19;;;9.29;100.00
9419;BME280;4748;50.802;7.132;2023-04-27T00:59:53;101336.59;;;9.36;100.00
9419;BME280;4748;50.802;7.132;2023-04-27T01:02:19;101333.72;;;9.38;100.00
9419;BME280;4748;50.802;7.132;2023-04-27T01:04:45;101334.53;;;9.38;100.00
9419;BME280;4748;50.802;7.132;2023-04-27T01:07:10;101330.84;;;9.39;97.71
9419;BME280;4748;50.802;7.132;2023-04-27T01:09:36;101331.56;;;9.27;100.00
9419;BME280;4748;50.802;7.132;2023-04-27T01:12:01;101334.63;;;9.24;100.00
9419;BME280;4748;50.802;7.132;2023-04-27T01:14:27;101335.03;;;9.21;100.00
9419;BME280;4748;50.802;7.132;2023-04-27T01:16:52;101326.63;;;9.24;97.92
9419;BME280;4748;50.802;7.132;2023-04-27T01:19:18;101326.13;;;9.14;99.69
9419;BME280;4748;50.802;7.132;2023-04-27T01:21:43;101332.47;;;9.13;99.27
9419;BME280;4748;50.802;7.132;2023-04-27T01:24:09;101319.91;;;9.07;99.55
9419;BME280;4748;50.802;7.132;2023-04-27T01:26:34;101321.13;;;9.05;98.23
9419;BME280;4748;50.802;7.132;2023-04-27T01:28:59;101316.97;;;9.02;99.85
9419;BME280;4748;50.802;7.132;2023-04-27T01:31:25;101320.31;;;9.04;100.00
9419;BME280;4748;50.802;7.132;2023-04-27T01:33:50;101322.88;;;8.91;100.00
9419;BME280;4748;50.802;7.132;2023-04-27T01:36:16;101331.31;;;8.95;100.00
9419;BME280;4748;50.802;7.132;2023-04-27T01:38:41;101332.50;;;8.92;100.00
9419;BME280;4748;50.802;7.132;2023-04-27T01:41:07;101323.06;;;8.90;100.00
9419;BME280;4748;50.802;7.132;2023-04-27T01:43:34;101333.34;;;8.93;100.00
9419;BME280;4748;50.802;7.132;2023-04-27T01:46:05;101329.03;;;8.92;100.00
9419;BME280;4748;50.802;7.132;2023-04-27T01:48:31;101322.66;;;8.93;100.00
9419;BME280;4748;50.802;7.132;2023-04-27T01:50:56;101322.31;;;9.02;100.00
9419;BME280;4748;50.802;7.132;2023-04-27T01:53:22;101321.91;;;8.99;100.00
9419;BME280;4748;50.802;7.132;2023-04-27T01:55:47;101331.75;;;8.98;100.00
9419;BME280;4748;50.802;7.132;2023-04-27T01:58:12;101333.78;;;8.96;100.00
9419;BME280;4748;50.802;7.132;2023-04-27T02:00:38;101349.81;;;8.96;100.00
9419;BME280;4748;50.802;7.132;2023-04-27T02:03:03;101339.78;;;8.98;100.00
9419;BME280;4748;50.802;7.132;2023-04-27T02:05:28;101332.56;;;8.99;100.00
9419;BME280;4748;50.802;7.132;2023-04-27T02:07:54;101341.97;;;8.95;100.00
9419;BME280;4748;50.802;7.132;2023-04-27T02:10:19;101343.19;;;8.92;100.00
9419;BME280;4748;50.802;7.132;2023-04-27T02:12:46;101335.56;;;8.89;100.00
9419;BME280;4748;50.802;7.132;2023-04-27T02:15:12;101332.47;;;8.86;100.00
9419;BME280;4748;50.802;7.132;2023-04-27T02:17:37;101341.06;;;8.81;100.00
9419;BME280;4748;50.802;7.132;2023-04-27T02:20:04;101333.63;;;8.77;100.00
9419;BME280;4748;50.802;7.132;2023-04-27T02:22:31;101336.50;;;8.75;100.00
9419;BME280;4748;50.802;7.132;2023-04-27T02:24:56;101340.16;;;8.74;100.00
9419;BME280;4748;50.802;7.132;2023-04-27T03:24:00;101326.78;;;8.12;100.00
9419;BME280;4748;50.802;7.132;2023-04-27T03:26:26;101328.88;;;8.16;100.00
9419;BME280;4748;50.802;7.132;2023-04-27T03:28:51;101339.09;;;8.13;100.00
9419;BME280;4748;50.802;7.132;2023-04-27T03:31:16;101333.81;;;8.05;100.00
9419;BME280;4748;50.802;7.132;2023-04-27T03:33:42;101336.94;;;8.09;100.00
9419;BME280;4748;50.802;7.132;2023-04-27T03:36:07;101337.06;;;8.01;100.00
9419;BME280;4748;50.802;7.132;2023-04-27T03:38:35;101341.38;;;8.02;100.00
9419;BME280;4748;50.802;7.132;2023-04-27T03:41:00;101333.81;;;8.05;100.00
9419;BME280;4748;50.802;7.132;2023-04-27T03:43:26;101332.81;;;8.06;100.00
9419;BME280;4748;50.802;7.132;2023-04-27T03:45:51;101338.88;;;8.00;100.00
9419;BME280;4748;50.802;7.132;2023-04-27T03:48:17;101330.44;;;7.97;100.00
9419;BME280;4748;50.802;7.132;2023-04-27T03:50:43;101326.03;;;7.89;100.00
9419;BME280;4748;50.802;7.132;2023-04-27T03:53:09;101331.00;;;7.92;100.00
9419;BME280;4748;50.802;7.132;2023-04-27T03:55:42;101334.84;;;7.90;100.00
9419;BME280;4748;50.802;7.132;2023-04-27T03:58:09;101331.19;;;7.91;100.00
9419;BME280;4748;50.802;7.132;2023-04-27T04:00:38;101340.00;;;7.91;100.00
9419;BME280;4748;50.802;7.132;2023-04-27T04:03:04;101338.47;;;7.82;100.00
9419;BME280;4748;50.802;7.132;2023-04-27T04:05:30;101350.78;;;7.83;100.00
9419;BME280;4748;50.802;7.132;2023-04-27T04:07:56;101348.38;;;7.74;100.00
9419;BME280;4748;50.802;7.132;2023-04-27T04:10:22;101347.28;;;7.68;100.00
9419;BME280;4748;50.802;7.132;2023-04-27T04:12:47;101352.97;;;7.65;100.00
9419;BME280;4748;50.802;7.132;2023-04-27T04:15:13;101349.94;;;7.68;100.00
9419;BME280;4748;50.802;7.132;2023-04-27T04:17:38;101357.19;;;7.74;100.00
9419;BME280;4748;50.802;7.132;2023-04-27T04:20:04;101355.75;;;7.72;100.00
9419;BME280;4748;50.802;7.132;2023-04-27T04:22:36;101355.81;;;7.78;100.00
9419;BME280;4748;50.802;7.132;2023-04-27T04:25:02;101357.31;;;7.81;100.00
9419;BME280;4748;50.802;7.132;2023-04-27T04:27:28;101358.78;;;7.83;100.00
9419;BME280;4748;50.802;7.132;2023-04-27T04:29:53;101369.78;;;7.80;100.00
9419;BME280;4748;50.802;7.132;2023-04-27T04:32:19;101368.59;;;7.83;100.00
9419;BME280;4748;50.802;7.132;2023-04-27T04:34:50;101370.25;;;7.84;100.00
9419;BME280;4748;50.802;7.132;2023-04-27T04:37:15;101357.13;;;7.82;100.00
9419;BME280;4748;50.802;7.132;2023-04-27T04:39:43;101358.75;;;7.69;100.00
9419;BME280;4748;50.802;7.132;2023-04-27T04:42:08;101366.75;;;7.69;100.00
9419;BME280;4748;50.802;7.132;2023-04-27T04:44:33;101361.41;;;7.69;100.00
9419;BME280;4748;50.802;7.132;2023-04-27T04:46:59;101369.69;;;7.74;100.00
9419;BME280;4748;50.802;7.132;2023-04-27T04:49:24;101371.75;;;7.72;100.00
9419;BME280;4748;50.802;7.132;2023-04-27T04:51:50;101376.59;;;7.68;100.00
9419;BME280;4748;50.802;7.132;2023-04-27T04:54:15;101376.22;;;7.71;100.00
9419;BME280;4748;50.802;7.132;2023-04-27T04:56:40;101373.56;;;7.71;100.00
9419;BME280;4748;50.802;7.132;2023-04-27T04:59:06;101382.84;;;7.75;100.00
9419;BME280;4748;50.802;7.132;2023-04-27T05:01:32;101379.88;;;7.70;100.00
9419;BME280;4748;50.802;7.132;2023-04-27T05:03:57;101380.38;;;7.74;100.00
9419;BME280;4748;50.802;7.132;2023-04-27T05:06:23;101376.31;;;7.78;100.00
9419;BME280;4748;50.802;7.132;2023-04-27T05:08:48;101381.28;;;7.81;100.00
9419;BME280;4748;50.802;7.132;2023-04-27T05:11:13;101388.72;;;7.85;100.00
9419;BME280;4748;50.802;7.132;2023-04-27T05:13:39;101387.53;;;7.73;100.00
9419;BME280;4748;50.802;7.132;2023-04-27T05:16:05;101396.09;;;7.83;100.00
9419;BME280;4748;50.802;7.132;2023-04-27T05:18:31;101398.94;;;7.96;100.00
9419;BME280;4748;50.802;7.132;2023-04-27T05:20:57;101393.84;;;8.30;100.00
9419;BME280;4748;50.802;7.132;2023-04-27T05:23:22;101394.59;;;8.24;100.00
9419;BME280;4748;50.802;7.132;2023-04-27T05:25:47;101388.72;;;8.14;100.00
9419;BME280;4748;50.802;7.132;2023-04-27T05:28:13;101390.50;;;8.42;100.00
9419;BME280;4748;50.802;7.132;2023-04-27T05:30:38;101392.28;;;8.70;100.00
9419;BME280;4748;50.802;7.132;2023-04-27T05:33:04;101399.25;;;9.13;100.00
9419;BME280;4748;50.802;7.132;2023-04-27T05:35:30;101406.81;;;9.91;100.00
9419;BME280;4748;50.802;7.132;2023-04-27T05:37:56;101407.38;;;10.08;100.00
9419;BME280;4748;50.802;7.132;2023-04-27T05:40:21;101407.53;;;10.40;100.00
9419;BME280;4748;50.802;7.132;2023-04-27T05:42:47;101412.50;;;10.49;99.24
9419;BME280;4748;50.802;7.132;2023-04-27T05:45:13;101418.59;;;10.30;100.00
9419;BME280;4748;50.802;7.132;2023-04-27T05:47:38;101416.59;;;9.99;100.00
9419;BME280;4748;50.802;7.132;2023-04-27T05:50:04;101425.44;;;9.72;100.00
9419;BME280;4748;50.802;7.132;2023-04-27T05:52:30;101422.22;;;9.56;100.00
9419;BME280;4748;50.802;7.132;2023-04-27T05:54:56;101427.34;;;9.51;100.00
9419;BME280;4748;50.802;7.132;2023-04-27T05:57:25;101425.19;;;9.40;100.00
9419;BME280;4748;50.802;7.132;2023-04-27T05:59:51;101424.50;;;9.59;100.00
9419;BME280;4748;50.802;7.132;2023-04-27T06:02:17;101429.63;;;9.54;100.00
9419;BME280;4748;50.802;7.132;2023-04-27T06:04:43;101428.69;;;9.67;100.00
9419;BME280;4748;50.802;7.132;2023-04-27T06:07:10;101432.72;;;9.84;100.00
9419;BME280;4748;50.802;7.132;2023-04-27T06:09:36;101428.34;;;9.77;100.00
9419;BME280;4748;50.802;7.132;2023-04-27T06:12:02;101425.84;;;9.96;100.00
9419;BME280;4748;50.802;7.132;2023-04-27T06:14:29;101426.84;;;9.95;100.00
9419;BME280;4748;50.802;7.132;2023-04-27T06:16:54;101433.72;;;10.04;100.00
9419;BME280;4748;50.802;7.132;2023-04-27T06:19:20;101432.06;;;10.10;100.00
9419;BME280;4748;50.802;7.132;2023-04-27T06:21:45;101432.44;;;10.00;100.00
9419;BME280;4748;50.802;7.132;2023-04-27T06:24:10;101436.91;;;9.93;100.00
9419;BME280;4748;50.802;7.132;2023-04-27T06:26:36;101437.94;;;10.26;100.00
9419;BME280;4748;50.802;7.132;2023-04-27T06:29:01;101433.84;;;10.30;100.00
9419;BME280;4748;50.802;7.132;2023-04-27T06:31:28;101443.38;;;10.45;100.00
9419;BME280;4748;50.802;7.132;2023-04-27T06:33:54;101441.97;;;10.56;99.49
9419;BME280;4748;50.802;7.132;2023-04-27T06:36:19;101451.28;;;10.66;100.00
9419;BME280;4748;50.802;7.132;2023-04-27T06:38:45;101441.84;;;10.76;100.00
9419;BME280;4748;50.802;7.132;2023-04-27T06:41:10;101451.53;;;10.77;99.68
9419;BME280;4748;50.802;7.132;2023-04-27T06:43:36;101444.88;;;10.61;98.51
9419;BME280;4748;50.802;7.132;2023-04-27T06:46:01;101438.56;;;10.87;98.32
9419;BME280;4748;50.802;7.132;2023-04-27T06:48:27;101438.59;;;11.00;97.98
9419;BME280;4748;50.802;7.132;2023-04-27T06:50:52;101440.69;;;11.11;97.91
9419;BME280;4748;50.802;7.132;2023-04-27T06:53:17;101441.13;;;11.27;99.04
9419;BME280;4748;50.802;7.132;2023-04-27T06:55:43;101438.19;;;11.03;96.25
9419;BME280;4748;50.802;7.132;2023-04-27T06:58:08;101434.50;;;11.17;95.47
9419;BME280;4748;50.802;7.132;2023-04-27T07:00:33;101423.19;;;11.41;95.09
9419;BME280;4748;50.802;7.132;2023-04-27T07:02:59;101426.31;;;11.64;97.82
9419;BME280;4748;50.802;7.132;2023-04-27T07:05:24;101420.50;;;11.86;94.49
9419;BME280;4748;50.802;7.132;2023-04-27T07:07:50;101421.75;;;11.71;92.87
9419;BME280;4748;50.802;7.132;2023-04-27T07:10:16;101426.44;;;12.07;91.38
9419;BME280;4748;50.802;7.132;2023-04-27T07:12:41;101420.63;;;12.17;91.87
9419;BME280;4748;50.802;7.132;2023-04-27T07:15:07;101419.50;;;12.43;92.56
9419;BME280;4748;50.802;7.132;2023-04-27T07:17:33;101423.28;;;12.73;89.89
9419;BME280;4748;50.802;7.132;2023-04-27T07:20:00;101420.97;;;12.39;85.75
9419;BME280;4748;50.802;7.132;2023-04-27T07:22:25;101418.69;;;12.43;89.02
9419;BME280;4748;50.802;7.132;2023-04-27T07:24:50;101419.50;;;12.43;88.75
9419;BME280;4748;50.802;7.132;2023-04-27T07:27:16;101419.06;;;12.46;88.71
9419;BME280;4748;50.802;7.132;2023-04-27T07:29:41;101422.34;;;12.55;85.83
9419;BME280;4748;50.802;7.132;2023-04-27T07:32:08;101420.56;;;12.86;86.18
9419;BME280;4748;50.802;7.132;2023-04-27T07:34:33;101411.44;;;12.93;84.33
9419;BME280;4748;50.802;7.132;2023-04-27T07:37:00;101408.25;;;12.66;84.79
9419;BME280;4748;50.802;7.132;2023-04-27T07:39:26;101406.88;;;12.94;85.97
9419;BME280;4748;50.802;7.132;2023-04-27T07:41:52;101415.31;;;12.97;84.45
9419;BME280;4748;50.802;7.132;2023-04-27T07:44:18;101417.44;;;12.82;84.73
9419;BME280;4748;50.802;7.132;2023-04-27T07:46:44;101418.56;;;13.06;83.82
9419;BME280;4748;50.802;7.132;2023-04-27T07:49:12;101419.75;;;13.16;85.47
9419;BME280;4748;50.802;7.132;2023-04-27T07:51:38;101408.84;;;13.60;84.54
9419;BME280;4748;50.802;7.132;2023-04-27T07:54:04;101404.97;;;13.74;83.36
9419;BME280;4748;50.802;7.132;2023-04-27T07:56:31;101394.72;;;13.64;84.70
9419;BME280;4748;50.802;7.132;2023-04-27T07:58:56;101398.13;;;13.95;82.10
9419;BME280;4748;50.802;7.132;2023-04-27T08:01:21;101404.28;;;14.02;80.58
9419;BME280;4748;50.802;7.132;2023-04-27T08:03:47;101398.16;;;14.31;81.48
9419;BME280;4748;50.802;7.132;2023-04-27T08:06:12;101402.06;;;14.35;80.41
9419;BME280;4748;50.802;7.132;2023-04-27T08:08:37;101397.41;;;14.42;80.64
9419;BME280;4748;50.802;7.132;2023-04-27T08:11:03;101394.34;;;14.38;76.93
9419;BME280;4748;50.802;7.132;2023-04-27T08:13:28;101396.34;;;14.61;75.63
9419;BME280;4748;50.802;7.132;2023-04-27T08:15:53;101396.78;;;14.58;75.09
9419;BME280;4748;50.802;7.132;2023-04-27T08:18:25;101397.47;;;14.82;74.77
9419;BME280;4748;50.802;7.132;2023-04-27T08:20:51;101388.94;;;14.56;75.04
9419;BME280;4748;50.802;7.132;2023-04-27T08:23:16;101387.44;;;14.42;73.06
9419;BME280;4748;50.802;7.132;2023-04-27T08:25:42;101391.16;;;14.88;76.45
9419;BME280;4748;50.802;7.132;2023-04-27T08:28:07;101385.19;;;14.86;71.83
9419;BME280;4748;50.802;7.132;2023-04-27T08:30:32;101393.34;;;14.80;71.78
9419;BME280;4748;50.802;7.132;2023-04-27T08:32:58;101391.97;;;14.78;70.93
9419;BME280;4748;50.802;7.132;2023-04-27T08:35:23;101382.78;;;14.78;68.76
9419;BME280;4748;50.802;7.132;2023-04-27T08:37:49;101379.13;;;15.02;70.19
9419;BME280;4748;50.802;7.132;2023-04-27T08:40:14;101369.53;;;15.06;71.08
9419;BME280;4748;50.802;7.132;2023-04-27T08:42:53;101370.06;;;15.26;65.67
9419;BME280;4748;50.802;7.132;2023-04-27T08:45:19;101370.31;;;15.36;68.59
9419;BME280;4748;50.802;7.132;2023-04-27T08:47:44;101364.22;;;15.40;66.39
9419;BME280;4748;50.802;7.132;2023-04-27T08:50:11;101365.41;;;15.67;65.14
9419;BME280;4748;50.802;7.132;2023-04-27T08:52:36;101361.63;;;15.91;64.92
9419;BME280;4748;50.802;7.132;2023-04-27T08:55:02;101370.91;;;15.95;66.61
9419;BME280;4748;50.802;7.132;2023-04-27T08:57:29;101363.75;;;15.32;66.90
9419;BME280;4748;50.802;7.132;2023-04-27T08:59:58;101369.84;;;15.62;63.26
9419;BME280;4748;50.802;7.132;2023-04-27T09:02:35;101363.63;;;15.95;66.46
9419;BME280;4748;50.802;7.132;2023-04-27T09:05:01;101370.44;;;15.86;63.96
9419;BME280;4748;50.802;7.132;2023-04-27T09:07:27;101365.63;;;15.77;62.79
9419;BME280;4748;50.802;7.132;2023-04-27T09:10:01;101358.78;;;15.97;60.64
9419;BME280;4748;50.802;7.132;2023-04-27T09:12:27;101364.25;;;16.36;63.25
9419;BME280;4748;50.802;7.132;2023-04-27T09:14:57;101359.25;;;16.56;60.77
9419;BME280;4748;50.802;7.132;2023-04-27T09:17:27;101353.91;;;16.45;59.64
9419;BME280;4748;50.802;7.132;2023-04-27T09:20:04;101352.75;;;16.69;57.00
9419;BME280;4748;50.802;7.132;2023-04-27T09:22:42;101349.88;;;16.75;58.47
9419;BME280;4748;50.802;7.132;2023-04-27T09:25:08;101352.44;;;16.26;59.85
9419;BME280;4748;50.802;7.132;2023-04-27T09:27:33;101343.34;;;16.60;61.52
9419;BME280;4748;50.802;7.132;2023-04-27T09:29:58;101349.44;;;16.67;61.49
9419;BME280;4748;50.802;7.132;2023-04-27T09:32:24;101349.53;;;15.93;58.32
9419;BME280;4748;50.802;7.132;2023-04-27T09:34:49;101346.47;;;16.52;60.78
9419;BME280;4748;50.802;7.132;2023-04-27T09:37:15;101347.81;;;16.66;59.83
9419;BME280;4748;50.802;7.132;2023-04-27T09:39:40;101345.34;;;16.36;58.76
9419;BME280;4748;50.802;7.132;2023-04-27T09:42:06;101339.13;;;16.36;57.98
9419;BME280;4748;50.802;7.132;2023-04-27T09:44:32;101346.88;;;16.33;57.12
9419;BME280;4748;50.802;7.132;2023-04-27T09:46:59;101345.38;;;16.64;55.47
9419;BME280;4748;50.802;7.132;2023-04-27T09:49:26;101335.91;;;16.67;58.41
9419;BME280;4748;50.802;7.132;2023-04-27T09:51:54;101323.19;;;16.79;58.06
9419;BME280;4748;50.802;7.132;2023-04-27T09:54:24;101329.16;;;16.81;58.30
9419;BME280;4748;50.802;7.132;2023-04-27T10:02:16;101320.47;;;17.23;53.61
9419;BME280;4748;50.802;7.132;2023-04-27T10:07:25;101318.97;;;17.32;55.58
9419;BME280;4748;50.802;7.132;2023-04-27T10:09:51;101323.44;;;17.59;54.31
9419;BME280;4748;50.802;7.132;2023-04-27T10:12:33;101315.84;;;17.39;49.90
9419;BME280;4748;50.802;7.132;2023-04-27T10:15:12;101318.06;;;17.42;50.28
9419;BME280;4748;50.802;7.132;2023-04-27T10:17:49;101316.34;;;17.37;51.52
9419;BME280;4748;50.802;7.132;2023-04-27T10:20:14;101316.50;;;17.30;55.14
9419;BME280;4748;50.802;7.132;2023-04-27T10:22:47;101309.78;;;17.33;50.76
9419;BME280;4748;50.802;7.132;2023-04-27T10:25:19;101304.03;;;17.29;53.28
9419;BME280;4748;50.802;7.132;2023-04-27T10:27:59;101308.13;;;17.48;48.16
9419;BME280;4748;50.802;7.132;2023-04-27T10:30:30;101308.78;;;17.55;50.80
9419;BME280;4748;50.802;7.132;2023-04-27T10:32:57;101304.09;;;17.50;51.09
9419;BME280;4748;50.802;7.132;2023-04-27T10:35:37;101301.13;;;17.19;45.95
9419;BME280;4748;50.802;7.132;2023-04-27T10:38:08;101299.13;;;17.26;47.92
9419;BME280;4748;50.802;7.132;2023-04-27T10:40:35;101296.16;;;17.44;52.42
9419;BME280;4748;50.802;7.132;2023-04-27T10:43:11;101292.44;;;17.50;45.69
9419;BME280;4748;50.802;7.132;2023-04-27T10:45:37;101292.22;;;17.73;50.49
9419;BME280;4748;50.802;7.132;2023-04-27T10:48:04;101286.56;;;17.74;49.52
9419;BME280;4748;50.802;7.132;2023-04-27T10:50:29;101287.56;;;17.89;50.33
9419;BME280;4748;50.802;7.132;2023-04-27T10:53:06;101280.22;;;17.85;47.26
9419;BME280;4748;50.802;7.132;2023-04-27T10:55:33;101275.69;;;17.90;51.68
9419;BME280;4748;50.802;7.132;2023-04-27T10:57:59;101280.47;;;18.05;51.39
9419;BME280;4748;50.802;7.132;2023-04-27T11:00:31;101286.84;;;18.15;49.60
9419;BME280;4748;50.802;7.132;2023-04-27T11:03:09;101275.97;;;17.73;44.08
9419;BME280;4748;50.802;7.132;2023-04-27T11:05:36;101272.75;;;17.76;48.71
9419;BME280;4748;50.802;7.132;2023-04-27T11:10:31;101265.91;;;17.68;48.00
9419;BME280;4748;50.802;7.132;2023-04-27T11:12:56;101266.31;;;17.60;49.37
9419;BME280;4748;50.802;7.132;2023-04-27T11:15:22;101267.84;;;17.73;51.00
9419;BME280;4748;50.802;7.132;2023-04-27T11:17:47;101260.16;;;18.07;50.04
9419;BME280;4748;50.802;7.132;2023-04-27T11:20:13;101258.81;;;18.10;48.98
9419;BME280;4748;50.802;7.132;2023-04-27T11:22:44;101262.19;;;18.17;46.05
9419;BME280;4748;50.802;7.132;2023-04-27T11:25:12;101253.66;;;18.30;48.65
9419;BME280;4748;50.802;7.132;2023-04-27T11:27:39;101257.25;;;17.92;49.03
9419;BME280;4748;50.802;7.132;2023-04-27T11:30:05;101252.44;;;18.42;48.13
9419;BME280;4748;50.802;7.132;2023-04-27T11:32:32;101255.56;;;18.08;48.37
9419;BME280;4748;50.802;7.132;2023-04-27T11:34:57;101246.97;;;17.94;47.40
9419;BME280;4748;50.802;7.132;2023-04-27T11:37:26;101243.94;;;18.12;47.48
9419;BME280;4748;50.802;7.132;2023-04-27T11:39:53;101236.75;;;18.23;48.69
9419;BME280;4748;50.802;7.132;2023-04-27T11:42:23;101237.53;;;17.76;46.94
9419;BME280;4748;50.802;7.132;2023-04-27T11:47:18;101242.81;;;17.66;48.59
9419;BME280;4748;50.802;7.132;2023-04-27T11:49:48;101241.78;;;17.88;47.11
9419;BME280;4748;50.802;7.132;2023-04-27T11:52:14;101236.72;;;17.96;47.91
9419;BME280;4748;50.802;7.132;2023-04-27T11:54:53;101229.91;;;17.51;45.85
9419;BME280;4748;50.802;7.132;2023-04-27T11:57:32;101227.59;;;17.81;46.17
9419;BME280;4748;50.802;7.132;2023-04-27T12:00:00;101230.97;;;17.93;47.08
9419;BME280;4748;50.802;7.132;2023-04-27T12:02:27;101228.13;;;18.04;47.72
9419;BME280;4748;50.802;7.132;2023-04-27T12:04:53;101223.59;;;17.88;47.72
9419;BME280;4748;50.802;7.132;2023-04-27T12:07:18;101217.75;;;17.54;46.04
9419;BME280;4748;50.802;7.132;2023-04-27T12:09:44;101213.91;;;17.71;47.10
9419;BME280;4748;50.802;7.132;2023-04-27T12:12:10;101211.69;;;18.11;48.64
9419;BME280;4748;50.802;7.132;2023-04-27T12:14:37;101215.28;;;18.16;47.01
9419;BME280;4748;50.802;7.132;2023-04-27T12:17:03;101213.00;;;18.08;47.58
9419;BME280;4748;50.802;7.132;2023-04-27T12:19:28;101205.63;;;18.04;47.76
9419;BME280;4748;50.802;7.132;2023-04-27T12:21:54;101204.13;;;17.91;46.33
9419;BME280;4748;50.802;7.132;2023-04-27T12:24:20;101202.47;;;18.33;46.61
9419;BME280;4748;50.802;7.132;2023-04-27T12:26:47;101204.19;;;18.18;47.72
9419;BME280;4748;50.802;7.132;2023-04-27T12:29:12;101210.50;;;18.23;48.96
9419;BME280;4748;50.802;7.132;2023-04-27T12:31:38;101199.78;;;18.38;48.54
9419;BME280;4748;50.802;7.132;2023-04-27T12:34:03;101203.91;;;18.45;47.79
9419;BME280;4748;50.802;7.132;2023-04-27T12:36:29;101186.66;;;18.25;47.88
9419;BME280;4748;50.802;7.132;2023-04-27T12:39:15;101190.50;;;18.60;45.74
9419;BME280;4748;50.802;7.132;2023-04-27T12:41:42;101194.63;;;18.37;47.15
9419;BME280;4748;50.802;7.132;2023-04-27T12:44:07;101184.47;;;18.53;47.80
9419;BME280;4748;50.802;7.132;2023-04-27T12:46:33;101186.28;;;18.74;47.73
9419;BME280;4748;50.802;7.132;2023-04-27T12:48:58;101195.84;;;18.24;48.37
9419;BME280;4748;50.802;7.132;2023-04-27T12:51:23;101194.34;;;18.38;49.01
9419;BME280;4748;50.802;7.132;2023-04-27T12:53:49;101194.28;;;18.59;48.64
9419;BME280;4748;50.802;7.132;2023-04-27T12:56:14;101193.00;;;18.67;49.03
9419;BME280;4748;50.802;7.132;2023-04-27T12:58:40;101197.91;;;18.70;47.45
9419;BME280;4748;50.802;7.132;2023-04-27T13:01:06;101195.22;;;18.75;47.50
9419;BME280;4748;50.802;7.132;2023-04-27T13:03:42;101189.00;;;18.79;45.66
9419;BME280;4748;50.802;7.132;2023-04-27T13:06:08;101191.34;;;18.35;45.11
9419;BME280;4748;50.802;7.132;2023-04-27T13:08:36;101186.72;;;18.61;46.25
9419;BME280;4748;50.802;7.132;2023-04-27T13:11:02;101179.38;;;18.57;45.85
9419;BME280;4748;50.802;7.132;2023-04-27T13:13:27;101189.59;;;18.50;44.02
9419;BME280;4748;50.802;7.132;2023-04-27T13:15:52;101178.97;;;18.43;45.97
9419;BME280;4748;50.802;7.132;2023-04-27T13:18:18;101183.22;;;18.66;45.73
9419;BME280;4748;50.802;7.132;2023-04-27T13:20:43;101187.66;;;18.77;45.08
9419;BME280;4748;50.802;7.132;2023-04-27T13:23:09;101188.56;;;18.92;45.68
9419;BME280;4748;50.802;7.132;2023-04-27T13:25:34;101178.44;;;18.78;46.87
9419;BME280;4748;50.802;7.132;2023-04-27T13:28:00;101183.50;;;18.69;45.66
9419;BME280;4748;50.802;7.132;2023-04-27T13:30:25;101181.13;;;18.73;45.59
9419;BME280;4748;50.802;7.132;2023-04-27T13:32:51;101176.75;;;18.72;46.09
9419;BME280;4748;50.802;7.132;2023-04-27T13:35:17;101182.16;;;18.67;45.79
9419;BME280;4748;50.802;7.132;2023-04-27T13:37:43;101180.50;;;18.66;46.16
9419;BME280;4748;50.802;7.132;2023-04-27T13:40:09;101173.28;;;18.45;45.45
9419;BME280;4748;50.802;7.132;2023-04-27T13:42:35;101176.22;;;18.75;44.98
9419;BME280;4748;50.802;7.132;2023-04-27T13:45:01;101175.88;;;18.61;44.48
9419;BME280;4748;50.802;7.132;2023-04-27T13:47:28;101170.78;;;18.39;44.65
9419;BME280;4748;50.802;7.132;2023-04-27T13:50:02;101169.66;;;18.35;43.84
9419;BME280;4748;50.802;7.132;2023-04-27T13:52:28;101168.03;;;18.34;43.35
9419;BME280;4748;50.802;7.132;2023-04-27T13:54:53;101163.50;;;18.44;43.73
9419;BME280;4748;50.802;7.132;2023-04-27T13:57:19;101161.00;;;18.38;42.52
9419;BME280;4748;50.802;7.132;2023-04-27T13:59:44;101160.06;;;18.53;44.25
9419;BME280;4748;50.802;7.132;2023-04-27T14:02:10;101156.13;;;18.71;43.90
9419;BME280;4748;50.802;7.132;2023-04-27T14:04:35;101150.44;;;18.72;43.63
9419;BME280;4748;50.802;7.132;2023-04-27T14:07:00;101158.66;;;18.51;43.12
9419;BME280;4748;50.802;7.132;2023-04-27T14:09:26;101154.88;;;18.47;43.54
9419;BME280;4748;50.802;7.132;2023-04-27T14:11:52;101142.47;;;18.56;44.15
9419;BME280;4748;50.802;7.132;2023-04-27T14:14:17;101144.41;;;18.65;43.79
9419;BME280;4748;50.802;7.132;2023-04-27T14:16:43;101143.78;;;18.53;42.63